Karmel — 9HA2896 — position and weather

sailwx.info

Track history (hours):
 
Tides and Currents Weather Stations Pressure Air Temp Water Temp Dewpoint Dewpoint Depression Visibility Wind Speed Wind Dir Waves Ship Positions

Karmel

Last reported at 2014-Nov-26 20:33 UTC. Time now 2014-Nov-27 04:30 UTC.
Position N 55°36' E 006°46'.

Length 90 m; draft 3.8 m.

Type: Cargo ship. MMSI: 256632000.

Date/timePositionNaut miles runAvg speedWind from/ knotsBaromVisibWave heightAir tempDewpointWater temp
2014-Nov-26 20:33N 55°36' E 006°46'1110.9
2014-Nov-26 19:33N 55°25' E 006°47'1111.1
2014-Nov-26 18:33N 55°14' E 006°47'1111.0
2014-Nov-26 17:33N 55°03' E 006°47'8610.2
2014-Nov-26 09:08N 53°38' E 006°24'5 8.7
2014-Nov-26 08:33N 53°37' E 006°32'9 9.4
2014-Nov-26 07:33N 53°31' E 006°45'1211.7
2014-Nov-26 06:33N 53°23' E 006°58'1010.3
2014-Nov-26 05:34N 53°20' E 007°15'9 8.5
2014-Nov-26 04:31N 53°14' E 007°26'7 7.7
2014-Nov-26 03:33N 53°07' E 007°22'1 0.8
2014-Nov-26 02:23N 53°06' E 007°22'0 0.0
2014-Nov-26 01:20N 53°06' E 007°22'0 0.0
2014-Nov-26 00:08N 53°06' E 007°22'0 0.0
2014-Nov-25 23:32N 53°06' E 007°22'0 0.0
2014-Nov-25 22:26N 53°06' E 007°22'0 0.0
2014-Nov-25 21:29N 53°06' E 007°22'0 0.0
2014-Nov-25 20:32N 53°06' E 007°22'0 0.0
2014-Nov-25 19:31N 53°06' E 007°22'0 0.0
2014-Nov-25 18:28N 53°06' E 007°22'0 0.0
2014-Nov-25 17:31N 53°06' E 007°22'0 0.0
2014-Nov-25 16:28N 53°06' E 007°22'0 0.0
2014-Nov-25 15:22N 53°06' E 007°22'0 0.0
2014-Nov-25 14:31N 53°06' E 007°22'1 0.6
2014-Nov-25 13:33N 53°06' E 007°22'4 3.6
2014-Nov-25 12:31N 53°10' E 007°22'6 5.8
2014-Nov-25 11:33N 53°15' E 007°24'8 8.4
2014-Nov-25 10:33N 53°20' E 007°12'9 9.1
2014-Nov-25 09:33N 53°23' E 006°58'1313.1
2014-Nov-25 08:32N 53°33' E 006°42'1411.9
2014-Nov-25 07:23N 53°38' E 006°21'3 3.3
2014-Nov-25 06:34N 53°36' E 006°19'48 5.8
2014-Nov-24 22:13N 53°59' E 007°30'4 6.2
2014-Nov-24 21:33N 54°00' E 007°37'6 5.7
2014-Nov-24 20:33N 54°01' E 007°46'6 5.9
2014-Nov-24 19:33N 54°01' E 007°56'7 6.5
2014-Nov-24 18:33N 54°01' E 008°07'7 7.0
2014-Nov-24 17:33N 53°60' E 008°19'10 9.8
2014-Nov-24 16:33N 53°58' E 008°35'1211.7
2014-Nov-24 15:33N 53°50' E 008°50'10 9.8
2014-Nov-24 14:33N 53°53' E 009°07'2 1.8
2014-Nov-24 13:34N 53°54' E 009°09'8 7.8
2014-Nov-24 12:33N 53°60' E 009°17'9 8.5
2014-Nov-24 11:31N 54°09' E 009°21'9 7.5
2014-Nov-24 10:21N 54°12' E 009°34'6 7.8
2014-Nov-24 09:32N 54°18' E 009°40'7 7.5
2014-Nov-24 08:33N 54°22' E 009°51'8 7.8
2014-Nov-24 07:33N 54°22' E 010°04'3 2.7
2014-Nov-24 06:33N 54°22' E 010°08'3 3.3
2014-Nov-24 05:33N 54°24' E 010°12'9 9.5
2014-Nov-24 04:33N 54°31' E 010°23'9 9.4
2014-Nov-24 03:33N 54°35' E 010°38'3210.0
2014-Nov-24 00:25N 54°31' E 011°32'910.0
2014-Nov-23 23:33N 54°27' E 011°45'1010.0
2014-Nov-23 22:33N 54°27' E 012°03'93 9.3
2014-Nov-23 12:33N 55°16' E 014°19'1310.2
2014-Nov-23 11:19N 55°25' E 014°33'810.4
2014-Nov-23 10:33N 55°30' E 014°45'  
2014-Nov-17 15:28N 57°09' E 017°35'113 7.9
2014-Nov-17 01:06N 55°39' E 015°31'4 6.8
2014-Nov-17 00:28N 55°37' E 015°24'6 6.5
2014-Nov-16 23:34N 55°34' E 015°15'7 6.5
2014-Nov-16 22:33N 55°31' E 015°05'9 6.1
2014-Nov-16 21:03N 55°27' E 014°51'  
Track history (hours):
 
Tides and Currents Weather Stations Pressure Air Temp Water Temp Dewpoint Dewpoint Depression Visibility Wind Speed Wind Dir Waves Ship Positions

Karmel

Last reported at 2014-Nov-26 20:33 UTC. Time now 2014-Nov-27 04:30 UTC.
Position N 55°36' E 006°46'.

Length 90 m; draft 3.8 m.

Type: Cargo ship. MMSI: 256632000.

Date/timePositionNaut miles runAvg speedWind from/ knotsBaromVisibWave heightAir tempDewpointWater temp
2014-Nov-26 20:33N 55°36' E 006°46'1110.9
2014-Nov-26 19:33N 55°25' E 006°47'1111.1
2014-Nov-26 18:33N 55°14' E 006°47'1111.0
2014-Nov-26 17:33N 55°03' E 006°47'8610.2
2014-Nov-26 09:08N 53°38' E 006°24'5 8.7
2014-Nov-26 08:33N 53°37' E 006°32'9 9.4
2014-Nov-26 07:33N 53°31' E 006°45'1211.7
2014-Nov-26 06:33N 53°23' E 006°58'1010.3
2014-Nov-26 05:34N 53°20' E 007°15'9 8.5
2014-Nov-26 04:31N 53°14' E 007°26'7 7.7
2014-Nov-26 03:33N 53°07' E 007°22'1 0.8
2014-Nov-26 02:23N 53°06' E 007°22'0 0.0
2014-Nov-26 01:20N 53°06' E 007°22'0 0.0
2014-Nov-26 00:08N 53°06' E 007°22'0 0.0
2014-Nov-25 23:32N 53°06' E 007°22'0 0.0
2014-Nov-25 22:26N 53°06' E 007°22'0 0.0
2014-Nov-25 21:29N 53°06' E 007°22'0 0.0
2014-Nov-25 20:32N 53°06' E 007°22'0 0.0
2014-Nov-25 19:31N 53°06' E 007°22'0 0.0
2014-Nov-25 18:28N 53°06' E 007°22'0 0.0
2014-Nov-25 17:31N 53°06' E 007°22'0 0.0
2014-Nov-25 16:28N 53°06' E 007°22'0 0.0
2014-Nov-25 15:22N 53°06' E 007°22'0 0.0
2014-Nov-25 14:31N 53°06' E 007°22'1 0.6
2014-Nov-25 13:33N 53°06' E 007°22'4 3.6
2014-Nov-25 12:31N 53°10' E 007°22'6 5.8
2014-Nov-25 11:33N 53°15' E 007°24'8 8.4
2014-Nov-25 10:33N 53°20' E 007°12'9 9.1
2014-Nov-25 09:33N 53°23' E 006°58'1313.1
2014-Nov-25 08:32N 53°33' E 006°42'1411.9
2014-Nov-25 07:23N 53°38' E 006°21'3 3.3
2014-Nov-25 06:34N 53°36' E 006°19'48 5.8
2014-Nov-24 22:13N 53°59' E 007°30'4 6.2
2014-Nov-24 21:33N 54°00' E 007°37'6 5.7
2014-Nov-24 20:33N 54°01' E 007°46'6 5.9
2014-Nov-24 19:33N 54°01' E 007°56'7 6.5
2014-Nov-24 18:33N 54°01' E 008°07'7 7.0
2014-Nov-24 17:33N 53°60' E 008°19'10 9.8
2014-Nov-24 16:33N 53°58' E 008°35'1211.7
2014-Nov-24 15:33N 53°50' E 008°50'10 9.8
2014-Nov-24 14:33N 53°53' E 009°07'2 1.8
2014-Nov-24 13:34N 53°54' E 009°09'8 7.8
2014-Nov-24 12:33N 53°60' E 009°17'9 8.5
2014-Nov-24 11:31N 54°09' E 009°21'9 7.5
2014-Nov-24 10:21N 54°12' E 009°34'6 7.8
2014-Nov-24 09:32N 54°18' E 009°40'7 7.5
2014-Nov-24 08:33N 54°22' E 009°51'8 7.8
2014-Nov-24 07:33N 54°22' E 010°04'3 2.7
2014-Nov-24 06:33N 54°22' E 010°08'3 3.3
2014-Nov-24 05:33N 54°24' E 010°12'9 9.5
2014-Nov-24 04:33N 54°31' E 010°23'9 9.4
2014-Nov-24 03:33N 54°35' E 010°38'3210.0
2014-Nov-24 00:25N 54°31' E 011°32'910.0
2014-Nov-23 23:33N 54°27' E 011°45'1010.0
2014-Nov-23 22:33N 54°27' E 012°03'93 9.3
2014-Nov-23 12:33N 55°16' E 014°19'1310.2
2014-Nov-23 11:19N 55°25' E 014°33'810.4
2014-Nov-23 10:33N 55°30' E 014°45'  
2014-Nov-17 15:28N 57°09' E 017°35'113 7.9
2014-Nov-17 01:06N 55°39' E 015°31'4 6.8
2014-Nov-17 00:28N 55°37' E 015°24'6 6.5
2014-Nov-16 23:34N 55°34' E 015°15'7 6.5
2014-Nov-16 22:33N 55°31' E 015°05'9 6.1
2014-Nov-16 21:03N 55°27' E 014°51'  

Dump ship's entire track history